sensor_id;sensor_type;location;lat;lon;timestamp;P1;durP1;ratioP1;P2;durP2;ratioP2
49235;SDS011;35067;48.134;8.378;2023-08-17T00:00:40;9.70;;;5.87;;
49235;SDS011;35067;48.134;8.378;2023-08-17T00:01:41;7.83;;;5.10;;
49235;SDS011;35067;48.134;8.378;2023-08-17T00:02:41;5.73;;;5.13;;
49235;SDS011;35067;48.134;8.378;2023-08-17T00:03:42;7.27;;;6.03;;
49235;SDS011;35067;48.134;8.378;2023-08-17T00:04:43;7.23;;;5.87;;
49235;SDS011;35067;48.134;8.378;2023-08-17T00:05:43;6.17;;;5.37;;
49235;SDS011;35067;48.134;8.378;2023-08-17T00:06:44;7.33;;;5.70;;
49235;SDS011;35067;48.134;8.378;2023-08-17T00:07:46;7.10;;;5.73;;
49235;SDS011;35067;48.134;8.378;2023-08-17T00:08:47;8.77;;;5.90;;
49235;SDS011;35067;48.134;8.378;2023-08-17T00:09:48;5.47;;;4.97;;
49235;SDS011;35067;48.134;8.378;2023-08-17T00:10:48;5.93;;;5.13;;
49235;SDS011;35067;48.134;8.378;2023-08-17T00:11:49;6.27;;;5.53;;
49235;SDS011;35067;48.134;8.378;2023-08-17T00:12:50;5.93;;;4.93;;
49235;SDS011;35067;48.134;8.378;2023-08-17T00:13:51;7.67;;;5.17;;
49235;SDS011;35067;48.134;8.378;2023-08-17T00:14:52;5.67;;;4.80;;
49235;SDS011;35067;48.134;8.378;2023-08-17T00:15:53;6.53;;;5.40;;
49235;SDS011;35067;48.134;8.378;2023-08-17T00:16:54;9.00;;;5.97;;
49235;SDS011;35067;48.134;8.378;2023-08-17T00:17:54;5.70;;;5.00;;
49235;SDS011;35067;48.134;8.378;2023-08-17T00:18:55;8.47;;;5.90;;
49235;SDS011;35067;48.134;8.378;2023-08-17T00:19:55;9.37;;;5.90;;
49235;SDS011;35067;48.134;8.378;2023-08-17T00:20:56;6.27;;;5.67;;
49235;SDS011;35067;48.134;8.378;2023-08-17T00:21:57;7.73;;;5.67;;
49235;SDS011;35067;48.134;8.378;2023-08-17T00:22:58;6.87;;;5.73;;
49235;SDS011;35067;48.134;8.378;2023-08-17T00:23:58;6.63;;;5.20;;
49235;SDS011;35067;48.134;8.378;2023-08-17T00:24:59;7.63;;;4.73;;
49235;SDS011;35067;48.134;8.378;2023-08-17T00:26:00;8.40;;;5.70;;
49235;SDS011;35067;48.134;8.378;2023-08-17T00:27:00;6.87;;;5.33;;
49235;SDS011;35067;48.134;8.378;2023-08-17T00:28:01;7.67;;;6.30;;
49235;SDS011;35067;48.134;8.378;2023-08-17T00:29:02;8.47;;;5.97;;
49235;SDS011;35067;48.134;8.378;2023-08-17T00:30:03;6.23;;;5.30;;
49235;SDS011;35067;48.134;8.378;2023-08-17T00:31:05;6.03;;;5.43;;
49235;SDS011;35067;48.134;8.378;2023-08-17T00:32:05;6.17;;;5.10;;
49235;SDS011;35067;48.134;8.378;2023-08-17T00:33:06;6.33;;;5.63;;
49235;SDS011;35067;48.134;8.378;2023-08-17T00:34:07;6.67;;;5.13;;
49235;SDS011;35067;48.134;8.378;2023-08-17T00:35:07;6.13;;;4.50;;
49235;SDS011;35067;48.134;8.378;2023-08-17T00:36:08;5.50;;;4.97;;
49235;SDS011;35067;48.134;8.378;2023-08-17T00:37:09;7.87;;;5.97;;
49235;SDS011;35067;48.134;8.378;2023-08-17T00:38:09;6.60;;;4.80;;
49235;SDS011;35067;48.134;8.378;2023-08-17T00:39:10;6.73;;;4.70;;
49235;SDS011;35067;48.134;8.378;2023-08-17T00:40:11;9.33;;;5.03;;
49235;SDS011;35067;48.134;8.378;2023-08-17T00:41:12;5.67;;;4.90;;
49235;SDS011;35067;48.134;8.378;2023-08-17T00:42:12;5.60;;;5.00;;
49235;SDS011;35067;48.134;8.378;2023-08-17T00:43:13;6.37;;;5.20;;
49235;SDS011;35067;48.134;8.378;2023-08-17T00:44:14;5.23;;;4.73;;
49235;SDS011;35067;48.134;8.378;2023-08-17T00:45:15;5.30;;;4.80;;
49235;SDS011;35067;48.134;8.378;2023-08-17T00:46:15;5.63;;;4.97;;
49235;SDS011;35067;48.134;8.378;2023-08-17T00:47:17;5.50;;;4.90;;
49235;SDS011;35067;48.134;8.378;2023-08-17T00:48:17;6.43;;;4.97;;
49235;SDS011;35067;48.134;8.378;2023-08-17T00:49:18;6.03;;;5.43;;
49235;SDS011;35067;48.134;8.378;2023-08-17T00:50:19;6.47;;;5.10;;
49235;SDS011;35067;48.134;8.378;2023-08-17T00:51:21;8.30;;;5.60;;
49235;SDS011;35067;48.134;8.378;2023-08-17T00:52:24;7.13;;;5.40;;
49235;SDS011;35067;48.134;8.378;2023-08-17T00:53:25;6.10;;;5.33;;
49235;SDS011;35067;48.134;8.378;2023-08-17T00:54:29;7.23;;;5.53;;
49235;SDS011;35067;48.134;8.378;2023-08-17T00:55:31;7.47;;;5.23;;
49235;SDS011;35067;48.134;8.378;2023-08-17T00:56:33;10.47;;;5.60;;
49235;SDS011;35067;48.134;8.378;2023-08-17T00:57:34;5.93;;;5.10;;
49235;SDS011;35067;48.134;8.378;2023-08-17T00:58:36;6.60;;;5.67;;
49235;SDS011;35067;48.134;8.378;2023-08-17T00:59:36;7.13;;;5.17;;
49235;SDS011;35067;48.134;8.378;2023-08-17T01:00:37;6.07;;;5.00;;
49235;SDS011;35067;48.134;8.378;2023-08-17T01:01:39;5.37;;;4.87;;
49235;SDS011;35067;48.134;8.378;2023-08-17T01:02:41;5.80;;;5.20;;
49235;SDS011;35067;48.134;8.378;2023-08-17T01:03:42;6.70;;;5.33;;
49235;SDS011;35067;48.134;8.378;2023-08-17T01:04:43;6.67;;;5.67;;
49235;SDS011;35067;48.134;8.378;2023-08-17T01:05:43;9.10;;;6.43;;
49235;SDS011;35067;48.134;8.378;2023-08-17T01:06:44;9.00;;;5.80;;
49235;SDS011;35067;48.134;8.378;2023-08-17T01:07:45;6.20;;;5.43;;
49235;SDS011;35067;48.134;8.378;2023-08-17T01:08:45;6.23;;;5.63;;
49235;SDS011;35067;48.134;8.378;2023-08-17T01:09:47;10.27;;;6.13;;
49235;SDS011;35067;48.134;8.378;2023-08-17T01:12:31;10.40;;;6.13;;
49235;SDS011;35067;48.134;8.378;2023-08-17T01:13:38;6.63;;;5.50;;
49235;SDS011;35067;48.134;8.378;2023-08-17T01:15:05;6.17;;;5.57;;
49235;SDS011;35067;48.134;8.378;2023-08-17T01:16:19;7.50;;;5.00;;
49235;SDS011;35067;48.134;8.378;2023-08-17T01:17:37;6.03;;;5.43;;
49235;SDS011;35067;48.134;8.378;2023-08-17T01:18:46;5.43;;;4.63;;
49235;SDS011;35067;48.134;8.378;2023-08-17T01:19:49;6.43;;;5.47;;
49235;SDS011;35067;48.134;8.378;2023-08-17T01:20:50;6.47;;;5.07;;
49235;SDS011;35067;48.134;8.378;2023-08-17T01:21:57;6.33;;;5.70;;
49235;SDS011;35067;48.134;8.378;2023-08-17T01:23:07;7.90;;;5.33;;
49235;SDS011;35067;48.134;8.378;2023-08-17T01:24:07;6.10;;;5.13;;
49235;SDS011;35067;48.134;8.378;2023-08-17T01:25:08;5.80;;;5.20;;
49235;SDS011;35067;48.134;8.378;2023-08-17T01:26:09;8.10;;;5.40;;
49235;SDS011;35067;48.134;8.378;2023-08-17T01:27:10;6.80;;;5.63;;
49235;SDS011;35067;48.134;8.378;2023-08-17T01:28:11;7.07;;;5.87;;
49235;SDS011;35067;48.134;8.378;2023-08-17T01:29:11;6.07;;;5.53;;
49235;SDS011;35067;48.134;8.378;2023-08-17T01:30:13;9.80;;;5.83;;
49235;SDS011;35067;48.134;8.378;2023-08-17T01:31:27;7.20;;;5.53;;
49235;SDS011;35067;48.134;8.378;2023-08-17T01:32:41;6.33;;;5.70;;
49235;SDS011;35067;48.134;8.378;2023-08-17T01:33:52;6.63;;;4.93;;
49235;SDS011;35067;48.134;8.378;2023-08-17T01:34:58;8.77;;;5.10;;
49235;SDS011;35067;48.134;8.378;2023-08-17T01:36:10;5.83;;;5.20;;
49235;SDS011;35067;48.134;8.378;2023-08-17T01:37:21;7.63;;;4.90;;
49235;SDS011;35067;48.134;8.378;2023-08-17T01:38:26;7.40;;;5.23;;
49235;SDS011;35067;48.134;8.378;2023-08-17T01:39:31;5.57;;;5.07;;
49235;SDS011;35067;48.134;8.378;2023-08-17T01:40:37;10.13;;;5.60;;
49235;SDS011;35067;48.134;8.378;2023-08-17T01:41:38;5.63;;;5.00;;
49235;SDS011;35067;48.134;8.378;2023-08-17T01:42:41;6.70;;;5.17;;
49235;SDS011;35067;48.134;8.378;2023-08-17T01:43:43;7.20;;;6.50;;
49235;SDS011;35067;48.134;8.378;2023-08-17T01:44:45;11.23;;;6.30;;
49235;SDS011;35067;48.134;8.378;2023-08-17T01:45:46;6.50;;;5.57;;
49235;SDS011;35067;48.134;8.378;2023-08-17T01:46:48;8.33;;;6.03;;
49235;SDS011;35067;48.134;8.378;2023-08-17T01:47:49;8.83;;;5.30;;
49235;SDS011;35067;48.134;8.378;2023-08-17T01:48:49;6.87;;;5.33;;
49235;SDS011;35067;48.134;8.378;2023-08-17T01:49:50;5.43;;;4.93;;
49235;SDS011;35067;48.134;8.378;2023-08-17T01:50:51;9.23;;;5.70;;
49235;SDS011;35067;48.134;8.378;2023-08-17T01:51:51;6.73;;;5.53;;
49235;SDS011;35067;48.134;8.378;2023-08-17T01:52:52;6.57;;;5.73;;
49235;SDS011;35067;48.134;8.378;2023-08-17T01:53:53;6.80;;;5.40;;
49235;SDS011;35067;48.134;8.378;2023-08-17T01:54:53;6.33;;;5.67;;
49235;SDS011;35067;48.134;8.378;2023-08-17T01:55:54;9.80;;;6.83;;
49235;SDS011;35067;48.134;8.378;2023-08-17T01:56:55;10.80;;;6.40;;
49235;SDS011;35067;48.134;8.378;2023-08-17T01:57:56;8.23;;;6.47;;
49235;SDS011;35067;48.134;8.378;2023-08-17T01:58:56;7.50;;;6.10;;
49235;SDS011;35067;48.134;8.378;2023-08-17T01:59:58;6.83;;;5.77;;
49235;SDS011;35067;48.134;8.378;2023-08-17T02:01:00;8.23;;;6.57;;
49235;SDS011;35067;48.134;8.378;2023-08-17T02:02:01;8.00;;;5.90;;
49235;SDS011;35067;48.134;8.378;2023-08-17T02:03:02;6.53;;;5.90;;
49235;SDS011;35067;48.134;8.378;2023-08-17T02:04:03;6.20;;;5.60;;
49235;SDS011;35067;48.134;8.378;2023-08-17T02:05:04;7.27;;;5.67;;
49235;SDS011;35067;48.134;8.378;2023-08-17T02:06:05;8.13;;;6.67;;
49235;SDS011;35067;48.134;8.378;2023-08-17T02:07:06;6.10;;;5.50;;
49235;SDS011;35067;48.134;8.378;2023-08-17T02:08:06;7.40;;;6.60;;
49235;SDS011;35067;48.134;8.378;2023-08-17T02:09:07;5.97;;;5.30;;
49235;SDS011;35067;48.134;8.378;2023-08-17T02:10:08;7.67;;;6.03;;
49235;SDS011;35067;48.134;8.378;2023-08-17T02:11:09;8.37;;;5.40;;
49235;SDS011;35067;48.134;8.378;2023-08-17T02:12:10;5.97;;;5.37;;
49235;SDS011;35067;48.134;8.378;2023-08-17T02:13:10;8.13;;;5.47;;
49235;SDS011;35067;48.134;8.378;2023-08-17T02:14:12;6.40;;;5.37;;
49235;SDS011;35067;48.134;8.378;2023-08-17T02:15:13;8.50;;;5.57;;
49235;SDS011;35067;48.134;8.378;2023-08-17T02:16:13;7.97;;;5.43;;
49235;SDS011;35067;48.134;8.378;2023-08-17T02:17:14;6.73;;;5.60;;
49235;SDS011;35067;48.134;8.378;2023-08-17T02:18:16;7.73;;;6.60;;
49235;SDS011;35067;48.134;8.378;2023-08-17T02:19:17;7.20;;;6.23;;
49235;SDS011;35067;48.134;8.378;2023-08-17T02:20:17;11.80;;;7.53;;
49235;SDS011;35067;48.134;8.378;2023-08-17T02:21:18;8.13;;;6.63;;
49235;SDS011;35067;48.134;8.378;2023-08-17T02:22:19;7.13;;;6.37;;
49235;SDS011;35067;48.134;8.378;2023-08-17T02:23:19;7.40;;;5.93;;
49235;SDS011;35067;48.134;8.378;2023-08-17T02:24:20;9.40;;;6.50;;
49235;SDS011;35067;48.134;8.378;2023-08-17T02:25:21;7.17;;;6.47;;
49235;SDS011;35067;48.134;8.378;2023-08-17T02:26:21;7.80;;;6.00;;
49235;SDS011;35067;48.134;8.378;2023-08-17T02:27:22;7.67;;;6.23;;
49235;SDS011;35067;48.134;8.378;2023-08-17T02:28:23;7.67;;;6.87;;
49235;SDS011;35067;48.134;8.378;2023-08-17T02:29:23;6.83;;;5.80;;
49235;SDS011;35067;48.134;8.378;2023-08-17T02:30:24;9.60;;;6.50;;
49235;SDS011;35067;48.134;8.378;2023-08-17T02:31:25;8.43;;;6.67;;
49235;SDS011;35067;48.134;8.378;2023-08-17T02:32:25;10.00;;;6.57;;
49235;SDS011;35067;48.134;8.378;2023-08-17T02:33:26;6.90;;;5.80;;
49235;SDS011;35067;48.134;8.378;2023-08-17T02:34:27;8.17;;;5.97;;
49235;SDS011;35067;48.134;8.378;2023-08-17T02:35:29;6.73;;;6.03;;
49235;SDS011;35067;48.134;8.378;2023-08-17T02:36:30;7.53;;;5.80;;
49235;SDS011;35067;48.134;8.378;2023-08-17T02:37:31;8.03;;;5.83;;
49235;SDS011;35067;48.134;8.378;2023-08-17T02:38:32;8.53;;;6.40;;
49235;SDS011;35067;48.134;8.378;2023-08-17T02:39:33;7.70;;;5.73;;
49235;SDS011;35067;48.134;8.378;2023-08-17T02:40:34;6.13;;;5.53;;
49235;SDS011;35067;48.134;8.378;2023-08-17T02:41:35;6.87;;;6.17;;
49235;SDS011;35067;48.134;8.378;2023-08-17T02:42:35;9.33;;;6.47;;
49235;SDS011;35067;48.134;8.378;2023-08-17T02:43:36;9.27;;;7.07;;
49235;SDS011;35067;48.134;8.378;2023-08-17T02:44:37;8.27;;;7.33;;
49235;SDS011;35067;48.134;8.378;2023-08-17T02:45:37;7.27;;;6.43;;
49235;SDS011;35067;48.134;8.378;2023-08-17T02:46:38;9.77;;;6.63;;
49235;SDS011;35067;48.134;8.378;2023-08-17T02:47:39;9.33;;;6.47;;
49235;SDS011;35067;48.134;8.378;2023-08-17T02:48:39;6.27;;;5.67;;
49235;SDS011;35067;48.134;8.378;2023-08-17T02:49:40;8.47;;;6.50;;
49235;SDS011;35067;48.134;8.378;2023-08-17T02:50:41;8.57;;;7.20;;
49235;SDS011;35067;48.134;8.378;2023-08-17T02:51:41;6.83;;;6.13;;
49235;SDS011;35067;48.134;8.378;2023-08-17T02:52:42;7.67;;;6.83;;
49235;SDS011;35067;48.134;8.378;2023-08-17T02:53:43;8.57;;;6.87;;
49235;SDS011;35067;48.134;8.378;2023-08-17T02:54:43;9.03;;;7.20;;
49235;SDS011;35067;48.134;8.378;2023-08-17T02:55:44;8.10;;;6.80;;
49235;SDS011;35067;48.134;8.378;2023-08-17T02:56:45;8.97;;;8.07;;
49235;SDS011;35067;48.134;8.378;2023-08-17T02:57:46;8.77;;;7.27;;
49235;SDS011;35067;48.134;8.378;2023-08-17T02:58:46;8.60;;;7.33;;
49235;SDS011;35067;48.134;8.378;2023-08-17T02:59:47;7.13;;;6.23;;
49235;SDS011;35067;48.134;8.378;2023-08-17T03:00:50;7.33;;;6.63;;
49235;SDS011;35067;48.134;8.378;2023-08-17T03:01:53;8.90;;;7.10;;
49235;SDS011;35067;48.134;8.378;2023-08-17T03:02:53;6.80;;;6.10;;
49235;SDS011;35067;48.134;8.378;2023-08-17T03:03:54;11.37;;;6.30;;
49235;SDS011;35067;48.134;8.378;2023-08-17T03:04:55;8.63;;;6.80;;
49235;SDS011;35067;48.134;8.378;2023-08-17T03:05:55;6.30;;;5.70;;
49235;SDS011;35067;48.134;8.378;2023-08-17T03:06:56;7.77;;;6.00;;
49235;SDS011;35067;48.134;8.378;2023-08-17T03:07:57;8.33;;;7.50;;
49235;SDS011;35067;48.134;8.378;2023-08-17T03:08:57;11.87;;;7.33;;
49235;SDS011;35067;48.134;8.378;2023-08-17T03:09:58;7.53;;;6.73;;
49235;SDS011;35067;48.134;8.378;2023-08-17T03:10:59;8.20;;;6.73;;
49235;SDS011;35067;48.134;8.378;2023-08-17T03:12:00;7.00;;;6.30;;
49235;SDS011;35067;48.134;8.378;2023-08-17T03:13:00;6.70;;;6.00;;
49235;SDS011;35067;48.134;8.378;2023-08-17T03:14:01;7.97;;;6.60;;
49235;SDS011;35067;48.134;8.378;2023-08-17T03:15:04;7.27;;;6.30;;
49235;SDS011;35067;48.134;8.378;2023-08-17T03:16:06;7.83;;;6.60;;
49235;SDS011;35067;48.134;8.378;2023-08-17T03:17:07;8.10;;;6.60;;
49235;SDS011;35067;48.134;8.378;2023-08-17T03:18:07;6.80;;;5.67;;
49235;SDS011;35067;48.134;8.378;2023-08-17T03:19:08;8.67;;;6.67;;
49235;SDS011;35067;48.134;8.378;2023-08-17T03:20:11;7.63;;;5.90;;
49235;SDS011;35067;48.134;8.378;2023-08-17T03:21:11;8.87;;;6.87;;
49235;SDS011;35067;48.134;8.378;2023-08-17T03:22:13;6.17;;;5.57;;
49235;SDS011;35067;48.134;8.378;2023-08-17T03:23:13;9.73;;;5.20;;
49235;SDS011;35067;48.134;8.378;2023-08-17T03:24:14;7.17;;;6.43;;
49235;SDS011;35067;48.134;8.378;2023-08-17T03:25:15;8.70;;;6.20;;
49235;SDS011;35067;48.134;8.378;2023-08-17T03:26:16;7.73;;;5.90;;
49235;SDS011;35067;48.134;8.378;2023-08-17T03:27:16;6.23;;;5.63;;
49235;SDS011;35067;48.134;8.378;2023-08-17T03:28:17;7.90;;;5.43;;
49235;SDS011;35067;48.134;8.378;2023-08-17T03:29:18;7.13;;;5.40;;
49235;SDS011;35067;48.134;8.378;2023-08-17T03:30:19;5.90;;;5.30;;
49235;SDS011;35067;48.134;8.378;2023-08-17T03:31:20;6.73;;;5.73;;
49235;SDS011;35067;48.134;8.378;2023-08-17T03:32:21;7.87;;;6.43;;
49235;SDS011;35067;48.134;8.378;2023-08-17T03:33:22;6.70;;;5.33;;
49235;SDS011;35067;48.134;8.378;2023-08-17T03:34:23;6.97;;;6.10;;
49235;SDS011;35067;48.134;8.378;2023-08-17T03:35:24;8.30;;;6.70;;
49235;SDS011;35067;48.134;8.378;2023-08-17T03:36:24;6.77;;;6.07;;
49235;SDS011;35067;48.134;8.378;2023-08-17T03:37:25;7.20;;;6.10;;
49235;SDS011;35067;48.134;8.378;2023-08-17T03:38:26;7.90;;;6.33;;
49235;SDS011;35067;48.134;8.378;2023-08-17T03:39:26;7.30;;;6.03;;
49235;SDS011;35067;48.134;8.378;2023-08-17T03:40:27;6.83;;;6.13;;
49235;SDS011;35067;48.134;8.378;2023-08-17T03:41:28;7.73;;;6.73;;
49235;SDS011;35067;48.134;8.378;2023-08-17T03:42:29;7.93;;;6.77;;
49235;SDS011;35067;48.134;8.378;2023-08-17T03:43:29;7.97;;;6.17;;
49235;SDS011;35067;48.134;8.378;2023-08-17T03:44:30;7.20;;;6.50;;
49235;SDS011;35067;48.134;8.378;2023-08-17T03:45:31;7.93;;;6.00;;
49235;SDS011;35067;48.134;8.378;2023-08-17T03:46:31;6.93;;;5.80;;
49235;SDS011;35067;48.134;8.378;2023-08-17T03:47:32;7.90;;;5.97;;
49235;SDS011;35067;48.134;8.378;2023-08-17T03:48:33;6.70;;;6.00;;
49235;SDS011;35067;48.134;8.378;2023-08-17T03:49:33;9.97;;;7.40;;
49235;SDS011;35067;48.134;8.378;2023-08-17T03:50:34;8.17;;;6.97;;
49235;SDS011;35067;48.134;8.378;2023-08-17T03:51:35;7.70;;;5.93;;
49235;SDS011;35067;48.134;8.378;2023-08-17T03:52:35;8.17;;;6.47;;
49235;SDS011;35067;48.134;8.378;2023-08-17T03:53:36;7.33;;;6.27;;
49235;SDS011;35067;48.134;8.378;2023-08-17T03:54:37;9.00;;;7.03;;
49235;SDS011;35067;48.134;8.378;2023-08-17T03:55:37;8.57;;;6.17;;
49235;SDS011;35067;48.134;8.378;2023-08-17T03:56:38;7.93;;;7.13;;
49235;SDS011;35067;48.134;8.378;2023-08-17T03:57:39;10.10;;;7.80;;
49235;SDS011;35067;48.134;8.378;2023-08-17T03:58:40;13.03;;;8.60;;
49235;SDS011;35067;48.134;8.378;2023-08-17T03:59:42;10.77;;;7.23;;
49235;SDS011;35067;48.134;8.378;2023-08-17T04:00:48;7.13;;;6.43;;
49235;SDS011;35067;48.134;8.378;2023-08-17T04:01:50;9.57;;;7.30;;
49235;SDS011;35067;48.134;8.378;2023-08-17T04:02:51;8.87;;;6.53;;
49235;SDS011;35067;48.134;8.378;2023-08-17T04:03:52;7.67;;;6.40;;
49235;SDS011;35067;48.134;8.378;2023-08-17T04:04:52;10.37;;;7.50;;
49235;SDS011;35067;48.134;8.378;2023-08-17T04:05:53;7.57;;;6.73;;
49235;SDS011;35067;48.134;8.378;2023-08-17T04:06:54;11.03;;;7.47;;
49235;SDS011;35067;48.134;8.378;2023-08-17T04:07:54;8.57;;;5.83;;
49235;SDS011;35067;48.134;8.378;2023-08-17T04:08:56;8.87;;;7.00;;
49235;SDS011;35067;48.134;8.378;2023-08-17T04:09:56;7.90;;;7.10;;
49235;SDS011;35067;48.134;8.378;2023-08-17T04:10:57;11.97;;;9.33;;
49235;SDS011;35067;48.134;8.378;2023-08-17T04:11:58;8.93;;;7.00;;
49235;SDS011;35067;48.134;8.378;2023-08-17T04:12:58;8.63;;;6.30;;
49235;SDS011;35067;48.134;8.378;2023-08-17T04:13:59;10.27;;;6.13;;
49235;SDS011;35067;48.134;8.378;2023-08-17T04:15:00;10.43;;;7.50;;
49235;SDS011;35067;48.134;8.378;2023-08-17T04:16:00;8.20;;;6.97;;
49235;SDS011;35067;48.134;8.378;2023-08-17T04:17:01;7.47;;;6.30;;
49235;SDS011;35067;48.134;8.378;2023-08-17T04:18:02;6.77;;;6.17;;
49235;SDS011;35067;48.134;8.378;2023-08-17T04:19:03;6.97;;;6.27;;
49235;SDS011;35067;48.134;8.378;2023-08-17T04:20:04;9.03;;;6.73;;
49235;SDS011;35067;48.134;8.378;2023-08-17T04:21:05;8.77;;;6.43;;
49235;SDS011;35067;48.134;8.378;2023-08-17T04:22:05;7.30;;;6.47;;
49235;SDS011;35067;48.134;8.378;2023-08-17T04:23:06;6.87;;;6.00;;
49235;SDS011;35067;48.134;8.378;2023-08-17T04:24:07;11.77;;;6.77;;
49235;SDS011;35067;48.134;8.378;2023-08-17T04:25:07;9.00;;;5.80;;
49235;SDS011;35067;48.134;8.378;2023-08-17T04:26:08;6.17;;;5.57;;
49235;SDS011;35067;48.134;8.378;2023-08-17T04:27:09;8.17;;;7.03;;
49235;SDS011;35067;48.134;8.378;2023-08-17T04:28:11;7.60;;;6.53;;
49235;SDS011;35067;48.134;8.378;2023-08-17T04:29:12;7.63;;;6.00;;
49235;SDS011;35067;48.134;8.378;2023-08-17T04:30:13;6.53;;;5.87;;
49235;SDS011;35067;48.134;8.378;2023-08-17T04:31:14;8.33;;;5.50;;
49235;SDS011;35067;48.134;8.378;2023-08-17T04:32:17;8.37;;;6.20;;
49235;SDS011;35067;48.134;8.378;2023-08-17T04:33:18;5.77;;;5.20;;
49235;SDS011;35067;48.134;8.378;2023-08-17T04:34:18;8.10;;;6.50;;
49235;SDS011;35067;48.134;8.378;2023-08-17T04:35:20;7.93;;;5.30;;
49235;SDS011;35067;48.134;8.378;2023-08-17T04:36:20;6.90;;;6.30;;
49235;SDS011;35067;48.134;8.378;2023-08-17T04:37:21;6.63;;;5.90;;
49235;SDS011;35067;48.134;8.378;2023-08-17T04:38:22;7.47;;;6.70;;
49235;SDS011;35067;48.134;8.378;2023-08-17T04:39:23;7.30;;;5.83;;
49235;SDS011;35067;48.134;8.378;2023-08-17T04:40:24;6.33;;;5.50;;
49235;SDS011;35067;48.134;8.378;2023-08-17T04:41:24;6.73;;;5.50;;
49235;SDS011;35067;48.134;8.378;2023-08-17T04:42:25;7.23;;;5.50;;
49235;SDS011;35067;48.134;8.378;2023-08-17T04:43:27;9.53;;;6.53;;
49235;SDS011;35067;48.134;8.378;2023-08-17T04:44:27;6.53;;;5.47;;
49235;SDS011;35067;48.134;8.378;2023-08-17T04:45:28;8.03;;;6.90;;
49235;SDS011;35067;48.134;8.378;2023-08-17T04:46:29;7.20;;;6.20;;
49235;SDS011;35067;48.134;8.378;2023-08-17T04:47:29;7.93;;;6.00;;
49235;SDS011;35067;48.134;8.378;2023-08-17T04:48:30;8.77;;;6.97;;
49235;SDS011;35067;48.134;8.378;2023-08-17T04:49:31;8.13;;;6.40;;
49235;SDS011;35067;48.134;8.378;2023-08-17T04:50:31;7.43;;;6.40;;
49235;SDS011;35067;48.134;8.378;2023-08-17T04:51:32;9.23;;;6.23;;
49235;SDS011;35067;48.134;8.378;2023-08-17T04:52:33;8.20;;;6.20;;
49235;SDS011;35067;48.134;8.378;2023-08-17T04:53:33;7.27;;;6.10;;
49235;SDS011;35067;48.134;8.378;2023-08-17T04:54:34;7.57;;;6.47;;
49235;SDS011;35067;48.134;8.378;2023-08-17T04:55:36;7.17;;;6.47;;
49235;SDS011;35067;48.134;8.378;2023-08-17T04:56:37;8.53;;;6.20;;
49235;SDS011;35067;48.134;8.378;2023-08-17T04:57:37;7.47;;;5.97;;
49235;SDS011;35067;48.134;8.378;2023-08-17T04:58:38;7.57;;;5.97;;
49235;SDS011;35067;48.134;8.378;2023-08-17T04:59:39;6.90;;;6.23;;
49235;SDS011;35067;48.134;8.378;2023-08-17T05:00:40;7.40;;;5.83;;
49235;SDS011;35067;48.134;8.378;2023-08-17T05:01:41;6.43;;;5.80;;
49235;SDS011;35067;48.134;8.378;2023-08-17T05:02:42;5.90;;;5.40;;
49235;SDS011;35067;48.134;8.378;2023-08-17T05:03:42;5.60;;;5.10;;
49235;SDS011;35067;48.134;8.378;2023-08-17T05:04:45;7.27;;;5.73;;
49235;SDS011;35067;48.134;8.378;2023-08-17T05:05:46;5.60;;;4.90;;
49235;SDS011;35067;48.134;8.378;2023-08-17T05:06:47;7.90;;;5.50;;
49235;SDS011;35067;48.134;8.378;2023-08-17T05:07:47;6.60;;;5.90;;
49235;SDS011;35067;48.134;8.378;2023-08-17T05:08:48;7.87;;;6.40;;
49235;SDS011;35067;48.134;8.378;2023-08-17T05:09:50;10.10;;;6.03;;
49235;SDS011;35067;48.134;8.378;2023-08-17T05:10:50;7.27;;;5.50;;
49235;SDS011;35067;48.134;8.378;2023-08-17T05:11:51;6.57;;;5.37;;
49235;SDS011;35067;48.134;8.378;2023-08-17T05:12:52;5.53;;;4.97;;
49235;SDS011;35067;48.134;8.378;2023-08-17T05:13:52;6.93;;;5.87;;
49235;SDS011;35067;48.134;8.378;2023-08-17T05:14:53;5.70;;;5.13;;
49235;SDS011;35067;48.134;8.378;2023-08-17T05:15:54;8.83;;;6.60;;
49235;SDS011;35067;48.134;8.378;2023-08-17T05:16:54;6.43;;;5.87;;
49235;SDS011;35067;48.134;8.378;2023-08-17T05:17:56;6.57;;;5.97;;
49235;SDS011;35067;48.134;8.378;2023-08-17T05:18:57;6.30;;;5.70;;
49235;SDS011;35067;48.134;8.378;2023-08-17T05:19:59;7.17;;;6.20;;
49235;SDS011;35067;48.134;8.378;2023-08-17T05:21:00;6.97;;;6.30;;
49235;SDS011;35067;48.134;8.378;2023-08-17T05:22:00;6.20;;;5.60;;
49235;SDS011;35067;48.134;8.378;2023-08-17T05:23:01;7.30;;;6.17;;
49235;SDS011;35067;48.134;8.378;2023-08-17T05:24:02;11.87;;;5.90;;
49235;SDS011;35067;48.134;8.378;2023-08-17T05:25:03;7.27;;;6.53;;
49235;SDS011;35067;48.134;8.378;2023-08-17T05:26:05;6.90;;;6.17;;
49235;SDS011;35067;48.134;8.378;2023-08-17T05:27:05;7.10;;;6.00;;
49235;SDS011;35067;48.134;8.378;2023-08-17T05:28:06;7.27;;;6.20;;
49235;SDS011;35067;48.134;8.378;2023-08-17T05:29:07;7.83;;;7.03;;
49235;SDS011;35067;48.134;8.378;2023-08-17T05:30:09;10.40;;;8.70;;
49235;SDS011;35067;48.134;8.378;2023-08-17T05:31:10;9.80;;;8.00;;
49235;SDS011;35067;48.134;8.378;2023-08-17T05:32:11;9.77;;;8.07;;
49235;SDS011;35067;48.134;8.378;2023-08-17T05:33:11;8.20;;;7.07;;
49235;SDS011;35067;48.134;8.378;2023-08-17T05:34:12;9.70;;;7.17;;
49235;SDS011;35067;48.134;8.378;2023-08-17T05:35:13;8.87;;;7.23;;
49235;SDS011;35067;48.134;8.378;2023-08-17T05:36:14;9.87;;;7.63;;
49235;SDS011;35067;48.134;8.378;2023-08-17T05:37:14;10.40;;;8.50;;
49235;SDS011;35067;48.134;8.378;2023-08-17T05:38:16;10.40;;;9.27;;
49235;SDS011;35067;48.134;8.378;2023-08-17T05:39:17;9.27;;;8.43;;
49235;SDS011;35067;48.134;8.378;2023-08-17T05:40:18;9.67;;;8.63;;
49235;SDS011;35067;48.134;8.378;2023-08-17T05:41:19;9.17;;;8.17;;
49235;SDS011;35067;48.134;8.378;2023-08-17T05:42:19;10.20;;;9.20;;
49235;SDS011;35067;48.134;8.378;2023-08-17T05:43:20;10.43;;;9.13;;
49235;SDS011;35067;48.134;8.378;2023-08-17T05:44:21;14.33;;;8.80;;
49235;SDS011;35067;48.134;8.378;2023-08-17T05:45:21;9.90;;;8.87;;
49235;SDS011;35067;48.134;8.378;2023-08-17T05:46:22;9.93;;;8.93;;
49235;SDS011;35067;48.134;8.378;2023-08-17T05:47:23;10.00;;;8.70;;
49235;SDS011;35067;48.134;8.378;2023-08-17T05:48:23;9.40;;;8.47;;
49235;SDS011;35067;48.134;8.378;2023-08-17T05:49:24;10.33;;;7.47;;
49235;SDS011;35067;48.134;8.378;2023-08-17T05:50:25;8.50;;;7.60;;
49235;SDS011;35067;48.134;8.378;2023-08-17T05:51:25;7.17;;;6.47;;
49235;SDS011;35067;48.134;8.378;2023-08-17T05:52:26;6.53;;;5.93;;
49235;SDS011;35067;48.134;8.378;2023-08-17T05:53:27;9.10;;;6.07;;
49235;SDS011;35067;48.134;8.378;2023-08-17T05:54:27;9.90;;;5.50;;
49235;SDS011;35067;48.134;8.378;2023-08-17T05:55:28;6.33;;;5.13;;
49235;SDS011;35067;48.134;8.378;2023-08-17T05:56:29;6.20;;;5.37;;
49235;SDS011;35067;48.134;8.378;2023-08-17T05:57:29;9.20;;;5.60;;
49235;SDS011;35067;48.134;8.378;2023-08-17T05:58:30;6.70;;;5.60;;
49235;SDS011;35067;48.134;8.378;2023-08-17T05:59:31;8.83;;;5.77;;
49235;SDS011;35067;48.134;8.378;2023-08-17T06:00:31;7.80;;;6.73;;
49235;SDS011;35067;48.134;8.378;2023-08-17T06:01:32;6.73;;;5.90;;
49235;SDS011;35067;48.134;8.378;2023-08-17T06:02:33;7.33;;;5.40;;
49235;SDS011;35067;48.134;8.378;2023-08-17T06:03:34;8.83;;;5.97;;
49235;SDS011;35067;48.134;8.378;2023-08-17T06:04:35;11.03;;;6.63;;
49235;SDS011;35067;48.134;8.378;2023-08-17T06:05:36;6.20;;;5.47;;
49235;SDS011;35067;48.134;8.378;2023-08-17T06:06:37;7.20;;;6.50;;
49235;SDS011;35067;48.134;8.378;2023-08-17T06:07:38;6.87;;;6.27;;
49235;SDS011;35067;48.134;8.378;2023-08-17T06:08:38;6.80;;;6.00;;
49235;SDS011;35067;48.134;8.378;2023-08-17T06:09:39;6.83;;;6.00;;
49235;SDS011;35067;48.134;8.378;2023-08-17T06:10:40;6.93;;;6.23;;